Haswell, CO (81045)

1:55 PM MDT on July 30, 2014 (GMT -0600)
NE Crowley County (KCOSUGAR1) Elev 4590 ft | 38.45 °N, 103.52 °W | Change Station

Current weather conditions updated 4 seconds ago

Overcast
Overcast
62.3 °F
Feels Like 62.3 °F
N
2.0
Wind Variable Wind from ENE
Gusts 11.0 mph

Today is forecast to be Much Cooler than yesterday. A few thunderstorms possible.

Today
High -- | Low -- °F
--% Chance of Precip.
Yesterday
High -- | Low -- °F
Precip. -- in
5:52 AM 8:04 PM
Waxing Crescent, 13% visible
Pressure 30.27 in
Visibility 10.0 miles
Clouds Scattered Clouds 1100 ft
Mostly Cloudy 1500 ft
Overcast 4000 ft
Dew Point 57 °F
Humidity 82%
Rainfall 0.05 in
Snow Depth Not available.
UV 4 out of 12
Pollen .50 out of 12
Air Quality Not available.
Flu Activity Not available.
SPECI KLHX 301932Z AUTO 04009KT 10SM SCT011 BKN015 OVC040 18/16 A3027 RMK AO2 RAB13E23 P0000 T01780156

More Conditions Fewer Conditions

Pressure 30.27 in
Visibility 10.0 miles
Clouds Scattered Clouds 1100 ft
Mostly Cloudy 1500 ft
Overcast 4000 ft
Dew Point 57 °F
Humidity 82%
Rainfall 0.05 in
Snow Depth Not available.
UV 4 out of 12
Pollen .50 out of 12
Air Quality Not available.
Flu Activity Not available.
SPECI KLHX 301932Z AUTO 04009KT 10SM SCT011 BKN015 OVC040 18/16 A3027 RMK AO2 RAB13E23 P0000 T01780156

More Conditions Fewer Conditions

10-Day Weather Forecast

Almanac

Astronomy

Jul. 30, 2014 Rise Set
Actual Time 5:52 AM MDT 8:04 PM MDT
Civil Twilight 5:23 AM MDT 8:34 PM MDT
Nautical Twilight 4:46 AM MDT 9:10 PM MDT
Astronomical Twilight 4:07 AM MDT 9:49 PM MDT
Moon 9:23 AM MDT 9:51 PM MDT
Length of Visible Light 15h 10m
Length of Day
14h 11m
Tomorrow will be 1m 50s shorter.
Waxing Crescent, 13% of the Moon is Illuminated
Today
Waxing Crescent
Aug 3
First Quarter
Aug 10
Full
Aug 17
Last Quarter
Aug 25
New

Today's Extremes

State Highs State Lows

Community

WunderPhotos

Upload Photos

1,739,168 photos uploaded!

WunderBlogs® & News

Nearby

Snow Depth

Station Depth Elevation
Apishapa 0 in 10000 ft
Medano Pass 0 in 9620 ft
Ute Creek 0 in 10650 ft
Trinchera 0 in 10860 ft
Echo Lake 0 in 10600 ft

Earthquake Activity

City Distance Mag. Time & Date
No recent earthquake activity has been reported nearby.
Minimum magnitude displayed is 2.5.

Coastal Water Temperatures

Place Temperature
No Stations Reporting

Nearby Weather Stations

Station Location Temp. Dew Point Humidity Wind Precip. Elev Updated Type
NE Crowley County, Sugar City, CO 62.3 °F 57 °F 82% ENE  at  2.0 mph 0.00 in / hr 4590 ft 1:55 PM MDT Rapid Fire

Show More Stations Show Fewer Stations